SPQU/AQP METAR and TAF weather

Enter ICAO airport designator
Station Type Date Time Source
SPQU METAR 2021/04/13 01:00 UTC NOAA

SPQU 130100Z 08007KT 9999 BKN100 14/06 Q1026 RMK PP000


Station Type Date Time Source
SPQU Decoded METAR 2021/04/13 01:00 UTC NOAA

Arequipa, Peru (SPQU) 16-19S 071-33W 2539M
Apr 12, 2021 - 09:00 PM EDT / 2021.04.13 0100 UTC
Wind: from the E (080 degrees) at 8 MPH (7 KT):0
Visibility: greater than 7 mile(s):0
Sky conditions: mostly cloudy
Temperature: 57 F (14 C)
Dew Point: 42 F (6 C)
Relative Humidity: 58%
Pressure (altimeter): 30.30 in. Hg (1026 hPa)
ob: SPQU 130100Z 08007KT 9999 BKN100 14/06 Q1026 RMK PP000
cycle: 1

Station Type Date Time Source
SPQU TAF 2021/04/12 18:35 UTC NOAA

TAF SPQU 121715Z 1218/1318 26010KT 9999 SCT050 SCT100 TX21/1219Z TN10/1310Z
FM130130 VRB02KT 9999 SCT100
FM130600 03005KT CAVOK

Example: see airport list